Time;durP1;ratioP1;P1;durP2;ratioP2;P2;SDS_P1;SDS_P2;PMS_P1;PMS_P2;Temp;Humidity;BMP_temperature;BMP_pressure;BME280_temperature;BME280_humidity;BME280_pressure;Samples;Min_cycle;Max_cycle;Signal;HPM_P1;HPM_P2
2021/05/01 00:00:13;;;;;;;11.68;6.13;;;;;;;10.46;77.61;97998.94;5047503;28;20102;-74
2021/05/01 00:02:41;;;;;;;12.43;6.30;;;;;;;10.43;77.98;97999.53;5049383;28;20044;-73
2021/05/01 00:05:09;;;;;;;13.93;6.47;;;;;;;10.44;78.06;98007.44;5047340;28;20041;-73
2021/05/01 00:07:35;;;;;;;11.02;6.25;;;;;;;10.40;78.23;98002.88;5045686;28;20052;-72
2021/05/01 00:10:03;;;;;;;11.90;6.72;;;;;;;10.43;78.10;98007.75;5048018;28;20112;-74
2021/05/01 00:12:30;;;;;;;13.32;6.45;;;;;;;10.43;77.90;98005.81;5049061;28;20052;-73
2021/05/01 00:14:56;;;;;;;10.80;5.60;;;;;;;10.23;78.25;97999.00;5049521;28;20060;-72
2021/05/01 00:17:22;;;;;;;10.82;4.80;;;;;;;10.08;78.78;98011.16;5042913;28;20524;-72
2021/05/01 00:19:48;;;;;;;12.48;6.43;;;;;;;10.24;78.41;98003.31;5049628;28;20044;-74
2021/05/01 00:22:15;;;;;;;12.80;6.53;;;;;;;10.18;78.51;98004.59;5043168;28;20045;-72
2021/05/01 00:24:41;;;;;;;15.10;6.28;;;;;;;10.15;78.30;98006.03;5049693;28;20114;-73
2021/05/01 00:27:07;;;;;;;11.18;4.47;;;;;;;9.88;78.48;98010.56;5044294;28;20055;-72
2021/05/01 00:29:33;;;;;;;12.88;6.57;;;;;;;9.97;78.26;98020.75;5049656;28;20127;-73
2021/05/01 00:31:59;;;;;;;12.00;5.78;;;;;;;9.69;78.34;98016.28;5044305;28;20132;-71
2021/05/01 00:34:25;;;;;;;13.50;6.80;;;;;;;9.82;77.69;98011.84;5042336;28;20186;-67
2021/05/01 00:36:51;;;;;;;12.02;5.85;;;;;;;9.63;78.10;98007.41;5041674;28;20052;-67
2021/05/01 00:39:18;;;;;;;15.85;6.50;;;;;;;9.72;77.63;98014.81;5040552;28;20092;-67
2021/05/01 00:41:46;;;;;;;11.57;5.82;;;;;;;9.72;77.20;98032.00;5045823;28;20205;-67
2021/05/01 00:44:12;;;;;;;13.50;6.75;;;;;;;9.70;77.45;98027.97;5051634;28;20512;-68
2021/05/01 00:46:46;;;;;;;11.20;6.05;;;;;;;9.67;77.04;98014.97;5047769;28;20052;-68
2021/05/01 00:49:11;;;;;;;11.68;6.10;;;;;;;9.63;77.40;98033.88;5054626;28;20063;-69
2021/05/01 00:51:38;;;;;;;13.90;6.93;;;;;;;9.49;77.52;98031.22;5051393;28;20489;-70
2021/05/01 00:54:04;;;;;;;15.93;6.97;;;;;;;9.16;77.47;98017.84;5051023;28;20045;-70
2021/05/01 00:56:31;;;;;;;13.13;6.80;;;;;;;9.26;76.58;98039.41;5050864;28;20053;-70
2021/05/01 00:58:58;;;;;;;12.15;5.20;;;;;;;9.07;75.93;98050.50;5048589;28;20401;-71
2021/05/01 01:01:25;;;;;;;15.13;5.90;;;;;;;8.99;76.30;98040.31;5051254;28;20051;-69
2021/05/01 01:03:51;;;;;;;11.20;6.20;;;;;;;9.00;75.15;98071.91;5049110;28;20114;-68
2021/05/01 01:06:18;;;;;;;9.82;4.20;;;;;;;8.77;74.59;98063.69;5053196;28;20045;-71
2021/05/01 01:08:45;;;;;;;10.20;4.90;;;;;;;8.73;75.00;98060.75;5052159;28;20045;-69
2021/05/01 01:11:12;;;;;;;10.40;4.47;;;;;;;8.57;75.59;98060.25;5052579;28;20143;-67
2021/05/01 01:13:39;;;;;;;9.98;4.97;;;;;;;8.60;75.51;98067.00;5043967;28;20303;-69
2021/05/01 01:16:07;;;;;;;13.55;5.03;;;;;;;8.53;75.42;98063.91;5053348;28;20584;-70
2021/05/01 01:18:34;;;;;;;12.27;6.35;;;;;;;8.55;75.48;98061.69;5052702;28;20052;-70
2021/05/01 01:21:03;;;;;;;11.20;5.90;;;;;;;8.45;75.26;98065.38;5049680;28;20532;-69
2021/05/01 01:23:31;;;;;;;10.93;5.03;;;;;;;8.43;75.77;98053.97;5041523;28;20535;-71
2021/05/01 01:25:57;;;;;;;11.73;4.80;;;;;;;8.42;75.62;98072.25;5069028;28;20045;-67
2021/05/01 01:28:25;;;;;;;9.43;5.00;;;;;;;8.35;75.40;98064.47;5052660;28;20099;-69
2021/05/01 01:30:51;;;;;;;12.90;6.80;;;;;;;8.41;75.70;98067.91;5047935;28;20052;-69
2021/05/01 01:33:17;;;;;;;9.93;4.80;;;;;;;8.31;75.72;98058.03;5051497;28;20077;-69
2021/05/01 01:35:43;;;;;;;15.93;5.75;;;;;;;8.25;76.32;98061.94;5052790;28;20059;-69
2021/05/01 01:38:10;;;;;;;9.25;4.68;;;;;;;8.20;76.48;98071.03;5041070;28;20056;-70
2021/05/01 01:40:38;;;;;;;9.73;4.43;;;;;;;8.12;76.22;98069.00;5044803;28;20048;-69
2021/05/01 01:43:05;;;;;;;8.30;4.25;;;;;;;8.09;76.21;98073.13;5051187;28;20053;-69
2021/05/01 01:45:31;;;;;;;10.63;5.13;;;;;;;8.03;76.30;98071.59;5049965;28;20041;-68
2021/05/01 01:47:58;;;;;;;10.15;4.30;;;;;;;7.99;76.33;98057.00;5050265;28;20052;-68
2021/05/01 01:50:26;;;;;;;12.63;6.43;;;;;;;7.94;76.15;98049.72;5050308;28;20497;-68
2021/05/01 01:53:06;;;;;;;13.25;6.18;;;;;;;7.94;76.20;98068.78;5050492;28;20107;-68
2021/05/01 01:55:34;;;;;;;9.15;4.05;;;;;;;7.88;76.60;98080.03;5051438;28;20045;-68
2021/05/01 01:58:02;;;;;;;12.02;6.50;;;;;;;7.98;76.25;98100.81;5046109;28;20041;-67
2021/05/01 02:00:31;;;;;;;13.40;5.50;;;;;;;7.87;76.44;98100.19;5043808;28;20045;-67
2021/05/01 02:02:57;;;;;;;13.75;6.65;;;;;;;7.86;76.71;98102.09;5016982;28;20045;-68
2021/05/01 02:05:24;;;;;;;11.80;7.13;;;;;;;7.91;76.43;98102.03;5050117;28;20493;-67
2021/05/01 02:07:54;;;;;;;12.45;5.63;;;;;;;7.95;76.11;98113.09;5048493;28;20501;-68
2021/05/01 02:10:28;;;;;;;10.23;5.25;;;;;;;7.86;76.28;98129.31;5047402;28;20045;-67
2021/05/01 02:12:54;;;;;;;10.77;5.07;;;;;;;7.75;76.65;98117.78;5026278;28;20199;-67
2021/05/01 02:15:23;;;;;;;11.40;4.32;;;;;;;7.76;76.48;98127.56;5044884;28;20052;-67
2021/05/01 02:17:57;;;;;;;9.52;5.32;;;;;;;7.72;76.61;98137.44;5046299;28;20051;-69
2021/05/01 02:20:25;;;;;;;11.52;6.53;;;;;;;7.74;76.77;98134.44;5051102;28;20041;-69
2021/05/01 02:22:53;;;;;;;12.45;6.28;;;;;;;7.89;76.32;98141.53;5050579;28;20076;-69
2021/05/01 02:25:20;;;;;;;13.02;6.15;;;;;;;8.08;75.62;98149.66;5050596;28;20045;-68
2021/05/01 02:27:46;;;;;;;11.00;6.07;;;;;;;7.95;76.06;98153.94;5045541;28;20140;-67
2021/05/01 02:30:16;;;;;;;10.95;5.18;;;;;;;8.00;75.55;98148.44;5049041;28;20052;-69
2021/05/01 02:32:43;;;;;;;14.70;6.07;;;;;;;8.02;75.65;98157.09;5049461;28;20159;-69
2021/05/01 02:35:12;;;;;;;10.73;5.60;;;;;;;8.12;75.39;98183.34;5046783;28;20041;-67
2021/05/01 02:37:39;;;;;;;10.35;5.30;;;;;;;7.76;76.24;98160.22;5047141;28;20052;-70
2021/05/01 02:40:07;;;;;;;9.73;4.30;;;;;;;7.74;76.27;98164.38;5051838;28;20041;-69
2021/05/01 02:42:33;;;;;;;8.20;4.10;;;;;;;7.69;76.18;98161.69;5047411;28;20467;-67
2021/05/01 02:44:59;;;;;;;8.40;3.60;;;;;;;7.64;76.35;98157.16;5044592;28;20044;-68
2021/05/01 02:47:26;;;;;;;13.15;5.25;;;;;;;7.71;76.26;98152.16;5049307;28;20053;-69
2021/05/01 02:49:53;;;;;;;9.77;4.65;;;;;;;7.66;76.04;98166.63;5048838;28;20040;-69
2021/05/01 02:52:19;;;;;;;6.78;3.05;;;;;;;7.74;75.73;98177.97;5049833;28;20060;-70
2021/05/01 02:54:45;;;;;;;10.60;5.00;;;;;;;7.87;75.54;98187.28;5048558;28;20041;-69
2021/05/01 02:57:11;;;;;;;8.73;3.63;;;;;;;7.76;75.68;98187.44;5060636;28;20041;-69
2021/05/01 02:59:37;;;;;;;10.90;5.35;;;;;;;7.86;75.56;98197.34;5050228;28;20033;-70
2021/05/01 03:02:03;;;;;;;8.40;4.15;;;;;;;7.57;76.28;98189.34;5049156;28;20045;-69
2021/05/01 03:04:29;;;;;;;9.98;3.78;;;;;;;7.64;76.19;98193.31;5026795;28;20048;-70
2021/05/01 03:06:57;;;;;;;10.20;4.72;;;;;;;7.69;76.29;98203.34;5015428;28;20417;-69
2021/05/01 03:09:23;;;;;;;9.20;4.18;;;;;;;7.76;75.92;98209.19;5049632;28;20222;-69
2021/05/01 03:11:50;;;;;;;9.23;3.95;;;;;;;7.62;76.41;98216.47;5048506;28;20051;-70
2021/05/01 03:14:16;;;;;;;8.45;3.78;;;;;;;7.59;76.63;98211.63;5048989;28;20044;-70
2021/05/01 03:16:42;;;;;;;12.48;4.35;;;;;;;7.60;76.40;98211.34;5049526;28;20049;-71
2021/05/01 03:19:08;;;;;;;10.43;4.82;;;;;;;7.69;75.96;98208.78;5051257;28;20139;-70
2021/05/01 03:21:34;;;;;;;11.68;6.07;;;;;;;7.59;76.71;98215.19;5048955;28;20459;-70
2021/05/01 03:24:01;;;;;;;11.75;6.18;;;;;;;7.80;75.90;98223.84;5051405;28;20049;-70
2021/05/01 03:26:29;;;;;;;11.55;6.85;;;;;;;8.09;75.31;98225.56;5049398;28;20043;-70
2021/05/01 03:28:55;;;;;;;11.45;4.97;;;;;;;8.11;74.64;98229.91;5048979;28;20029;-69
2021/05/01 03:31:21;;;;;;;10.82;4.22;;;;;;;7.85;75.47;98228.38;5045693;28;20075;-70
2021/05/01 03:33:47;;;;;;;11.65;5.65;;;;;;;7.79;76.13;98227.66;5050140;28;20044;-70
2021/05/01 03:36:13;;;;;;;11.60;5.13;;;;;;;7.91;75.67;98237.28;5037579;28;20052;-68
2021/05/01 03:38:39;;;;;;;14.02;3.95;;;;;;;7.89;75.47;98242.22;5048518;28;20075;-68
2021/05/01 03:41:06;;;;;;;10.82;4.60;;;;;;;7.69;76.55;98251.47;5048669;28;20037;-66
2021/05/01 03:43:33;;;;;;;10.88;5.45;;;;;;;7.88;75.94;98265.09;5048449;28;20048;-66
2021/05/01 03:45:59;;;;;;;7.65;3.50;;;;;;;7.79;75.68;98257.56;5048854;28;20037;-68
2021/05/01 03:48:25;;;;;;;12.48;5.90;;;;;;;7.85;75.96;98263.75;5048494;28;20524;-69
2021/05/01 03:50:51;;;;;;;10.63;5.10;;;;;;;8.06;75.11;98263.47;5049341;28;20088;-68
2021/05/01 03:53:17;;;;;;;13.65;6.25;;;;;;;8.09;75.14;98282.72;5037689;28;20053;-68
2021/05/01 03:55:44;;;;;;;13.45;5.25;;;;;;;8.19;74.87;98280.97;5047677;28;20154;-66
2021/05/01 03:58:11;;;;;;;7.28;3.05;;;;;;;7.94;74.65;98281.06;5048155;28;20040;-67
2021/05/01 04:00:37;;;;;;;8.00;3.80;;;;;;;7.88;75.23;98293.13;5045911;28;20588;-68
2021/05/01 04:03:03;;;;;;;8.60;4.28;;;;;;;7.89;75.09;98291.19;5048537;28;20128;-69
2021/05/01 04:05:29;;;;;;;12.30;4.35;;;;;;;7.80;75.60;98304.66;5050298;28;20037;-67
2021/05/01 04:07:55;;;;;;;8.80;4.38;;;;;;;7.92;75.66;98307.75;5047648;28;20040;-69
2021/05/01 04:10:21;;;;;;;8.00;3.72;;;;;;;7.84;75.61;98315.78;5052479;28;20056;-68
2021/05/01 04:12:48;;;;;;;8.93;3.35;;;;;;;7.67;75.76;98303.47;5063252;28;20052;-68
2021/05/01 04:15:15;;;;;;;8.10;2.65;;;;;;;7.65;76.01;98306.47;5046585;28;20080;-70
2021/05/01 04:17:41;;;;;;;11.90;4.38;;;;;;;7.85;75.84;98310.03;5050317;28;20095;-70
2021/05/01 04:20:08;;;;;;;10.15;3.05;;;;;;;7.71;75.74;98303.69;5042408;28;20053;-70
2021/05/01 04:22:35;;;;;;;7.25;3.22;;;;;;;7.72;75.75;98308.03;5054121;28;20041;-68
2021/05/01 04:25:01;;;;;;;7.57;2.92;;;;;;;7.62;76.20;98298.91;5052399;28;20053;-67
2021/05/01 04:27:29;;;;;;;6.47;2.88;;;;;;;7.60;76.03;98297.56;5050412;28;20056;-66
2021/05/01 04:29:56;;;;;;;11.27;4.53;;;;;;;7.75;75.91;98291.94;5050440;28;20072;-67
2021/05/01 04:32:22;;;;;;;8.40;3.60;;;;;;;7.72;76.04;98286.25;5053580;28;20064;-69
2021/05/01 04:34:49;;;;;;;9.98;4.10;;;;;;;7.60;76.29;98297.56;5052256;28;20132;-68
2021/05/01 04:37:15;;;;;;;8.68;4.22;;;;;;;7.60;77.11;98309.28;5042522;28;20071;-67
2021/05/01 04:39:41;;;;;;;9.00;4.67;;;;;;;7.84;77.51;98313.06;5053617;28;20100;-70
2021/05/01 04:42:08;;;;;;;6.65;2.58;;;;;;;7.55;77.92;98331.06;5054285;28;20052;-70
2021/05/01 04:44:34;;;;;;;8.82;4.55;;;;;;;7.64;78.06;98323.06;5052277;28;20056;-70
2021/05/01 04:47:00;;;;;;;11.35;4.28;;;;;;;7.59;77.51;98325.88;5052968;28;20067;-70
2021/05/01 04:49:27;;;;;;;10.00;4.40;;;;;;;7.73;77.82;98328.72;5053879;28;20548;-70
2021/05/01 04:51:53;;;;;;;8.90;3.53;;;;;;;7.86;76.15;98319.81;5054657;28;20072;-71
2021/05/01 04:54:19;;;;;;;10.10;4.57;;;;;;;8.22;75.88;98327.47;5049972;28;20040;-71
2021/05/01 04:56:45;;;;;;;10.40;4.07;;;;;;;8.33;73.83;98336.31;5069529;28;20056;-70
2021/05/01 04:59:11;;;;;;;7.93;3.42;;;;;;;8.10;74.36;98335.28;5053424;28;20045;-70
2021/05/01 05:01:38;;;;;;;7.43;3.33;;;;;;;8.46;73.26;98328.50;5052247;28;20094;-70
2021/05/01 05:04:04;;;;;;;6.38;3.13;;;;;;;8.29;72.85;98351.63;5052698;28;20053;-72
2021/05/01 05:06:32;;;;;;;8.85;3.45;;;;;;;8.71;72.00;98365.44;5036120;28;20051;-71
2021/05/01 05:09:00;;;;;;;7.50;3.05;;;;;;;8.61;71.24;98362.88;5054315;28;20131;-71
2021/05/01 05:11:26;;;;;;;7.18;3.47;;;;;;;8.07;73.76;98361.16;5052389;28;20041;-73
2021/05/01 05:13:52;;;;;;;8.07;3.38;;;;;;;8.08;74.60;98379.13;5051818;28;20135;-71
2021/05/01 05:16:19;;;;;;;12.30;2.90;;;;;;;7.42;78.26;98405.22;5053263;28;20505;-70
2021/05/01 05:18:48;;;;;;;8.57;3.13;;;;;;;6.92;80.43;98393.44;5054243;28;20068;-70
2021/05/01 05:21:14;;;;;;;9.43;3.47;;;;;;;6.53;82.56;98408.69;5053711;28;20087;-70
2021/05/01 05:23:41;;;;;;;8.13;3.53;;;;;;;6.20;82.68;98397.50;5053295;28;20131;-71
2021/05/01 05:26:07;;;;;;;7.35;3.38;;;;;;;6.02;82.65;98388.06;5053589;28;20045;-68
2021/05/01 05:28:34;;;;;;;7.75;3.75;;;;;;;6.10;82.66;98420.06;5053234;28;20037;-69
2021/05/01 05:31:01;;;;;;;11.63;4.70;;;;;;;6.00;82.20;98405.69;5052079;28;20292;-69
2021/05/01 05:33:27;;;;;;;11.32;3.30;;;;;;;6.12;82.31;98454.25;5052057;28;20045;-67
2021/05/01 05:35:54;;;;;;;5.27;2.40;;;;;;;5.85;82.06;98445.34;5053815;28;20059;-70
2021/05/01 05:38:19;;;;;;;6.90;3.20;;;;;;;6.05;82.44;98452.63;5053570;28;20446;-69
2021/05/01 05:40:46;;;;;;;7.60;3.38;;;;;;;6.16;81.60;98458.81;5052549;28;20041;-69
2021/05/01 05:43:13;;;;;;;6.28;2.85;;;;;;;6.08;80.65;98465.66;5054274;28;20076;-68
2021/05/01 05:45:41;;;;;;;7.35;3.13;;;;;;;6.26;79.62;98459.88;5073657;28;20054;-68
2021/05/01 05:48:08;;;;;;;5.70;2.63;;;;;;;6.41;78.97;98478.00;5056410;28;20115;-69
2021/05/01 05:50:34;;;;;;;8.40;3.20;;;;;;;6.41;78.48;98470.66;5034331;28;20047;-70
2021/05/01 05:53:00;;;;;;;6.75;2.90;;;;;;;6.38;78.15;98471.22;5053557;28;20048;-73
2021/05/01 05:55:26;;;;;;;6.90;2.63;;;;;;;6.45;77.73;98463.56;5052085;28;20503;-70
2021/05/01 05:57:55;;;;;;;6.47;2.03;;;;;;;6.55;76.77;98470.84;5046131;28;20499;-72
2021/05/01 06:00:23;;;;;;;5.75;2.50;;;;;;;6.45;75.83;98482.59;5033788;28;20505;-71
2021/05/01 06:02:51;;;;;;;6.43;2.35;;;;;;;6.63;75.25;98489.28;5051147;28;20068;-71
2021/05/01 06:05:21;;;;;;;3.95;1.92;;;;;;;6.54;75.04;98507.25;5053053;28;20053;-72
2021/05/01 06:07:50;;;;;;;6.22;2.50;;;;;;;6.55;75.20;98494.50;5051115;28;20044;-70
2021/05/01 06:10:16;;;;;;;6.55;2.13;;;;;;;6.81;73.38;98484.28;5021727;28;20042;-71
2021/05/01 06:12:43;;;;;;;6.03;2.33;;;;;;;7.07;72.78;98514.81;5033120;28;20092;-71
2021/05/01 06:15:13;;;;;;;2.92;1.70;;;;;;;7.09;71.20;98500.94;5046315;28;20503;-69
2021/05/01 06:17:40;;;;;;;3.70;1.77;;;;;;;7.23;69.68;98518.22;5024513;28;20144;-70
2021/05/01 06:20:09;;;;;;;5.45;1.95;;;;;;;7.19;69.13;98513.63;5032470;28;20052;-70
2021/05/01 06:22:35;;;;;;;4.70;2.05;;;;;;;7.20;67.95;98497.06;5051042;28;20128;-70
2021/05/01 06:25:04;;;;;;;4.10;1.83;;;;;;;7.30;67.62;98507.03;5050944;28;20055;-71
2021/05/01 06:27:30;;;;;;;2.63;1.40;;;;;;;7.30;67.72;98501.59;5050695;28;20095;-70
2021/05/01 06:29:56;;;;;;;5.00;2.00;;;;;;;7.44;67.61;98498.22;5052839;28;20057;-71
2021/05/01 06:32:24;;;;;;;5.90;2.30;;;;;;;7.82;66.26;98513.91;5052412;28;20051;-71
2021/05/01 06:34:51;;;;;;;5.57;2.28;;;;;;;7.97;65.44;98543.69;5051970;28;20523;-73
2021/05/01 06:37:19;;;;;;;5.03;2.25;;;;;;;8.01;63.53;98555.63;5051471;28;20079;-71
2021/05/01 06:39:47;;;;;;;9.50;2.20;;;;;;;7.80;64.86;98527.78;5051633;28;20065;-70
2021/05/01 06:42:18;;;;;;;5.07;2.38;;;;;;;7.91;64.55;98545.66;5017074;28;20496;-71
2021/05/01 06:44:49;;;;;;;7.40;2.70;;;;;;;8.09;62.82;98574.03;5034796;28;20045;-71
2021/05/01 06:47:17;;;;;;;5.95;2.60;;;;;;;7.85;62.32;98570.47;5050211;28;20048;-71
2021/05/01 06:49:53;;;;;;;5.57;2.38;;;;;;;7.91;62.55;98551.09;5051715;28;20078;-70
2021/05/01 06:52:20;;;;;;;7.13;2.58;;;;;;;7.90;62.40;98575.88;5049932;28;20144;-71
2021/05/01 06:54:50;;;;;;;5.43;2.40;;;;;;;7.86;63.26;98555.78;5038321;28;20152;-70
2021/05/01 06:57:22;;;;;;;10.60;4.35;;;;;;;7.92;63.55;98581.81;5031850;28;20068;-69
2021/05/01 06:59:52;;;;;;;7.90;2.90;;;;;;;7.96;62.73;98561.13;5048297;28;20045;-69
2021/05/01 07:02:24;;;;;;;7.03;3.25;;;;;;;7.83;62.98;98559.06;5050476;28;20075;-68
2021/05/01 07:04:53;;;;;;;9.02;3.45;;;;;;;7.83;63.16;98564.50;5046811;28;20122;-69
2021/05/01 07:07:22;;;;;;;7.30;3.13;;;;;;;7.90;61.55;98595.75;5066121;28;20114;-70
2021/05/01 07:10:02;;;;;;;7.43;2.72;;;;;;;7.82;61.98;98598.28;5052923;28;20053;-69
2021/05/01 07:12:30;;;;;;;8.43;3.67;;;;;;;7.76;61.78;98594.78;5053051;28;20091;-70
2021/05/01 07:14:58;;;;;;;6.93;2.97;;;;;;;8.00;61.69;98583.94;5050737;28;20044;-70
2021/05/01 07:17:24;;;;;;;6.78;2.70;;;;;;;8.55;60.56;98601.88;5053791;28;20055;-69
2021/05/01 07:19:59;;;;;;;8.10;3.47;;;;;;;8.16;60.48;98600.13;5051735;28;20051;-69
2021/05/01 07:22:30;;;;;;;13.00;3.65;;;;;;;8.19;59.59;98611.22;5051809;28;20049;-70
2021/05/01 07:24:58;;;;;;;8.43;3.10;;;;;;;7.70;59.14;98639.44;5050348;28;20147;-70
2021/05/01 07:27:32;;;;;;;5.90;2.58;;;;;;;7.49;58.43;98629.53;5051441;28;20049;-70
2021/05/01 07:30:08;;;;;;;7.45;2.38;;;;;;;7.58;57.43;98635.19;5050395;28;20068;-68
2021/05/01 07:32:39;;;;;;;7.00;3.00;;;;;;;7.61;56.20;98628.34;5062372;28;20441;-70
2021/05/01 07:35:08;;;;;;;6.75;2.80;;;;;;;7.69;56.47;98632.38;5070399;28;20118;-70
2021/05/01 07:37:37;;;;;;;6.28;2.70;;;;;;;7.91;56.45;98648.25;5069986;28;20044;-70
2021/05/01 07:40:07;;;;;;;6.95;2.38;;;;;;;7.96;55.30;98642.78;5055961;28;20057;-69
2021/05/01 07:42:37;;;;;;;8.98;3.15;;;;;;;7.95;55.86;98632.97;5050878;28;20084;-70
2021/05/01 07:45:04;;;;;;;7.72;2.60;;;;;;;8.01;53.96;98641.91;5051377;28;20533;-70
2021/05/01 07:47:33;;;;;;;7.18;2.28;;;;;;;8.18;52.75;98634.09;5051323;28;20053;-69
2021/05/01 07:49:59;;;;;;;4.93;1.90;;;;;;;8.17;51.78;98640.66;5050641;28;20079;-70
2021/05/01 07:52:30;;;;;;;6.85;2.10;;;;;;;8.48;51.61;98648.50;5049841;28;20051;-70
2021/05/01 07:54:57;;;;;;;7.18;2.13;;;;;;;8.14;52.08;98622.19;5047382;28;20041;-71
2021/05/01 07:57:23;;;;;;;5.20;2.20;;;;;;;8.37;51.68;98650.53;5050311;28;20499;-69
2021/05/01 07:59:50;;;;;;;10.52;2.70;;;;;;;8.35;52.36;98660.09;5050121;28;20068;-68
2021/05/01 08:02:16;;;;;;;3.60;1.77;;;;;;;8.22;50.96;98661.59;5050280;28;20072;-69
2021/05/01 08:04:42;;;;;;;6.65;2.35;;;;;;;8.14;50.24;98671.19;5048777;28;20049;-70
2021/05/01 08:07:09;;;;;;;6.88;2.08;;;;;;;8.17;50.14;98672.53;5050650;28;20139;-71
2021/05/01 08:09:36;;;;;;;7.65;2.38;;;;;;;8.26;49.93;98680.91;5052030;28;20099;-71
2021/05/01 08:12:07;;;;;;;5.20;1.92;;;;;;;7.93;51.32;98654.22;5048488;28;20053;-69
2021/05/01 08:14:43;;;;;;;7.38;2.50;;;;;;;8.25;50.89;98654.75;5036479;28;20513;-69
2021/05/01 08:17:09;;;;;;;3.97;1.90;;;;;;;8.20;51.55;98666.50;5030546;28;20049;-71
2021/05/01 08:19:35;;;;;;;6.97;1.90;;;;;;;8.31;51.71;98667.22;5052289;28;20484;-70
2021/05/01 08:22:01;;;;;;;10.13;2.45;;;;;;;8.31;53.04;98684.38;5048176;28;20041;-70
2021/05/01 08:24:28;;;;;;;8.18;2.58;;;;;;;8.61;52.35;98679.75;5049453;28;20053;-70
2021/05/01 08:26:55;;;;;;;6.95;2.40;;;;;;;8.62;50.63;98700.44;5050737;28;20053;-70
2021/05/01 08:29:21;;;;;;;6.63;1.77;;;;;;;8.36;50.93;98684.31;5049462;28;20063;-71
2021/05/01 08:31:47;;;;;;;5.88;2.00;;;;;;;8.32;50.65;98687.91;5049724;28;20059;-69
2021/05/01 08:34:13;;;;;;;4.50;2.00;;;;;;;8.24;49.94;98692.06;5047220;28;20041;-70
2021/05/01 08:36:39;;;;;;;3.78;1.58;;;;;;;7.82;49.44;98658.13;5050000;28;20106;-72
2021/05/01 08:39:05;;;;;;;7.57;2.25;;;;;;;8.42;48.68;98706.88;5048029;28;20053;-71
2021/05/01 08:41:32;;;;;;;7.60;2.40;;;;;;;8.45;47.40;98698.13;5042292;28;20057;-70
2021/05/01 08:44:06;;;;;;;4.55;1.80;;;;;;;8.35;47.82;98700.94;5030673;28;20115;-70
2021/05/01 08:46:32;;;;;;;6.18;2.15;;;;;;;8.47;47.39;98697.84;5047557;28;20052;-68
2021/05/01 08:48:58;;;;;;;5.97;2.28;;;;;;;8.42;48.62;98706.06;5049462;28;20076;-70
2021/05/01 08:51:24;;;;;;;5.40;2.10;;;;;;;8.71;44.22;98722.44;5050662;28;20566;-70
2021/05/01 08:53:52;;;;;;;8.43;1.85;;;;;;;8.50;41.43;98706.28;5053164;28;20048;-71
2021/05/01 08:56:19;;;;;;;5.38;1.98;;;;;;;8.72;41.91;98723.22;5049481;28;20068;-69
2021/05/01 08:58:47;;;;;;;3.33;1.40;;;;;;;8.58;43.22;98690.41;5050524;28;20069;-68
2021/05/01 09:01:15;;;;;;;9.85;2.13;;;;;;;8.86;43.61;98696.91;5047713;28;20107;-70
2021/05/01 09:03:42;;;;;;;6.75;2.25;;;;;;;8.94;43.80;98733.63;5050956;28;20048;-70
2021/05/01 09:06:09;;;;;;;7.40;1.98;;;;;;;9.15;43.95;98708.84;5051543;28;20500;-70
2021/05/01 09:08:39;;;;;;;6.88;2.20;;;;;;;9.11;45.03;98719.53;5067041;28;20041;-69
2021/05/01 09:11:06;;;;;;;5.30;1.95;;;;;;;9.18;44.47;98708.28;5051025;28;20045;-68
2021/05/01 09:13:32;;;;;;;6.65;2.20;;;;;;;9.14;43.53;98731.78;5057330;28;20072;-68
2021/05/01 09:16:01;;;;;;;8.10;2.00;;;;;;;9.39;42.91;98724.34;5058585;28;20052;-69
2021/05/01 09:18:43;;;;;;;4.82;1.85;;;;;;;9.10;41.85;98747.06;5055639;28;20049;-69
2021/05/01 09:21:15;;;;;;;5.60;1.70;;;;;;;9.06;39.70;98725.06;5051883;28;20048;-69
2021/05/01 09:23:44;;;;;;;5.35;1.63;;;;;;;9.22;38.78;98720.22;5051302;28;20136;-68
2021/05/01 09:26:11;;;;;;;4.70;1.63;;;;;;;9.15;39.24;98760.69;5050020;28;20041;-67
2021/05/01 09:28:44;;;;;;;3.38;1.30;;;;;;;9.03;37.89;98741.97;5037769;28;20310;-68
2021/05/01 09:31:12;;;;;;;6.30;1.50;;;;;;;9.10;38.60;98747.91;5046952;28;20509;-68
2021/05/01 09:33:40;;;;;;;6.10;1.77;;;;;;;9.21;39.18;98727.59;5051447;28;20106;-69
2021/05/01 09:36:11;;;;;;;9.52;1.98;;;;;;;9.24;39.22;98734.38;5052289;28;20358;-68
2021/05/01 09:38:40;;;;;;;6.75;1.92;;;;;;;9.31;38.29;98734.00;5067638;28;20052;-70
2021/05/01 09:41:09;;;;;;;6.75;1.70;;;;;;;9.37;38.33;98741.03;5052760;28;20048;-69
2021/05/01 09:43:55;;;;;;;8.35;1.75;;;;;;;8.96;38.86;98785.16;5052979;28;20593;-72
2021/05/01 09:46:21;;;;;;;5.85;1.73;;;;;;;8.86;39.42;98745.97;5064902;28;20045;-70
2021/05/01 09:49:03;;;;;;;5.00;1.70;;;;;;;9.31;38.59;98792.13;5051937;28;20169;-71
2021/05/01 09:51:45;;;;;;;6.97;1.85;;;;;;;9.19;37.82;98748.06;5051916;28;20115;-70
2021/05/01 09:54:12;;;;;;;4.07;1.63;;;;;;;9.02;37.51;98764.88;5051968;28;20059;-70
2021/05/01 09:56:48;;;;;;;5.70;1.90;;;;;;;9.32;37.01;98784.72;5050261;28;20053;-70
2021/05/01 09:59:15;;;;;;;5.25;2.00;;;;;;;9.41;37.53;98777.53;5048519;28;20194;-70
2021/05/01 10:01:42;;;;;;;10.55;2.00;;;;;;;9.61;38.11;98768.28;5052738;28;20573;-69
2021/05/01 10:04:15;;;;;;;7.03;1.70;;;;;;;9.64;38.28;98781.34;5055149;28;20056;-69
2021/05/01 10:06:45;;;;;;;5.93;1.73;;;;;;;9.65;38.77;98772.03;5052646;28;20449;-71
2021/05/01 10:09:20;;;;;;;4.47;1.80;;;;;;;9.59;37.35;98781.38;5041950;28;20501;-69
2021/05/01 10:11:46;;;;;;;8.30;1.95;;;;;;;9.88;37.52;98785.91;5052236;28;20053;-70
2021/05/01 10:14:16;;;;;;;3.72;1.67;;;;;;;9.51;35.10;98801.16;5052369;28;20147;-70
2021/05/01 10:16:53;;;;;;;3.92;1.40;;;;;;;9.60;35.12;98802.13;5051696;28;20044;-72
2021/05/01 10:19:20;;;;;;;;;;;;;;;9.79;35.49;98804.88;5051574;28;20044;-70
2021/05/01 10:21:47;;;;;;;8.60;1.58;;;;;;;9.92;35.76;98808.81;5067560;28;19928;-72
2021/05/01 10:24:14;;;;;;;5.23;1.90;;;;;;;9.78;36.55;98794.25;5052321;28;20060;-71
2021/05/01 10:26:43;;;;;;;5.10;1.60;;;;;;;9.77;36.12;98792.63;5051850;28;20346;-70
2021/05/01 10:29:23;;;;;;;4.05;1.77;;;;;;;9.91;35.99;98815.38;5051928;28;20084;-70
2021/05/01 10:31:54;;;;;;;7.57;1.90;;;;;;;9.81;35.95;98820.97;5052591;28;20049;-70
2021/05/01 10:34:23;;;;;;;5.95;1.70;;;;;;;9.85;36.03;98796.63;5050209;28;20053;-70
2021/05/01 10:36:53;;;;;;;7.47;1.80;;;;;;;9.97;36.73;98807.91;5045683;28;20055;-70
2021/05/01 10:39:20;;;;;;;4.00;1.50;;;;;;;9.94;36.59;98775.72;5052454;28;20536;-70
2021/05/01 10:42:03;;;;;;;6.32;1.95;;;;;;;9.92;36.61;98805.25;5035788;28;20473;-69
2021/05/01 10:44:36;;;;;;;7.32;1.77;;;;;;;10.04;35.75;98793.88;5050702;28;20053;-70
2021/05/01 10:47:09;;;;;;;;;;;;;;;10.05;35.56;98812.72;5051025;28;20045;-70
2021/05/01 10:49:36;;;;;;;3.35;1.25;;;;;;;9.75;36.01;98806.56;5051975;28;20330;-71
2021/05/01 10:52:13;;;;;;;5.10;1.88;;;;;;;9.99;35.29;98813.06;5034210;28;20415;-71
2021/05/01 10:54:56;;;;;;;7.90;1.90;;;;;;;10.26;35.68;98795.22;5056390;28;20118;-69
2021/05/01 10:57:22;;;;;;;9.20;2.28;;;;;;;10.11;35.40;98788.88;5031983;28;20065;-68
2021/05/01 10:59:56;;;;;;;4.55;1.75;;;;;;;10.24;35.30;98833.75;5049680;28;20126;-70
2021/05/01 11:02:32;;;;;;;4.95;1.80;;;;;;;10.31;34.71;98797.84;5051455;28;20504;-71
2021/05/01 11:05:00;;;;;;;6.95;2.15;;;;;;;10.19;35.00;98810.03;5050350;28;20135;-69
2021/05/01 11:07:41;;;;;;;7.25;1.95;;;;;;;10.08;34.53;98831.22;5048995;28;20045;-69
2021/05/01 11:10:10;;;;;;;5.03;1.60;;;;;;;10.28;34.17;98831.22;5051591;28;20381;-71
2021/05/01 11:12:38;;;;;;;6.95;1.48;;;;;;;10.08;34.60;98828.50;5050376;28;20067;-70
2021/05/01 11:15:07;;;;;;;6.75;2.00;;;;;;;10.27;34.66;98824.94;5049409;28;20061;-69
2021/05/01 11:17:37;;;;;;;5.40;1.48;;;;;;;10.31;34.83;98806.88;5051232;28;20059;-70
2021/05/01 11:20:07;;;;;;;8.70;2.00;;;;;;;10.18;35.99;98832.19;5051414;28;20061;-70
2021/05/01 11:22:35;;;;;;;9.95;2.08;;;;;;;10.50;35.71;98823.25;5050865;28;20075;-69
2021/05/01 11:25:04;;;;;;;4.80;1.95;;;;;;;10.72;35.52;98832.75;5044051;28;20063;-69
2021/05/01 11:27:30;;;;;;;8.07;1.92;;;;;;;10.66;35.63;98833.13;5051038;28;20060;-69
2021/05/01 11:29:56;;;;;;;4.88;1.90;;;;;;;10.69;35.68;98835.25;5051519;28;20413;-70
2021/05/01 11:32:22;;;;;;;3.30;1.30;;;;;;;10.25;36.53;98826.38;5051147;28;20053;-70
2021/05/01 11:35:03;;;;;;;3.75;1.50;;;;;;;10.35;36.61;98829.75;5033698;28;20073;-71
2021/05/01 11:37:37;;;;;;;7.97;1.75;;;;;;;10.68;36.97;98826.25;5044599;28;20191;-70
2021/05/01 11:40:05;;;;;;;5.47;1.75;;;;;;;10.89;36.39;98839.59;5042110;28;20049;-70
2021/05/01 11:42:32;;;;;;;5.18;1.95;;;;;;;10.71;37.02;98858.47;5043922;28;20053;-69